createdAt,value
2017-09-26T00:01:22.666Z,97.30
2017-09-26T00:03:50.168Z,97.50
2017-09-26T00:06:17.672Z,97.60
2017-09-26T00:08:45.440Z,97.50
2017-09-26T00:11:12.950Z,97.50
2017-09-26T00:13:40.631Z,97.30
2017-09-26T00:16:08.419Z,97.50
2017-09-26T00:18:35.940Z,97.40
2017-09-26T00:21:03.458Z,97.40
2017-09-26T00:23:30.985Z,97.30
2017-09-26T00:25:58.565Z,97.20
2017-09-26T00:28:26.089Z,97.50
2017-09-26T00:30:53.757Z,97.30
2017-09-26T00:33:21.273Z,97.30
2017-09-26T00:35:49.861Z,97.30
2017-09-26T00:38:17.387Z,97.10
2017-09-26T00:40:44.897Z,97.10
2017-09-26T00:43:12.416Z,97.00
2017-09-26T00:45:40.032Z,97.20
2017-09-26T00:48:07.564Z,97.10
2017-09-26T00:50:35.084Z,97.20
2017-09-26T00:53:02.604Z,97.10
2017-09-26T00:55:30.160Z,97.00
2017-09-26T00:57:57.684Z,96.80
2017-09-26T01:00:26.031Z,97.00
2017-09-26T01:02:53.552Z,96.90
2017-09-26T01:05:21.495Z,96.80
2017-09-26T01:07:49.005Z,96.90
2017-09-26T01:10:16.764Z,96.80
2017-09-26T01:12:44.269Z,96.90
2017-09-26T01:15:11.984Z,96.90
2017-09-26T01:17:39.504Z,96.60
2017-09-26T01:20:07.028Z,96.60
2017-09-26T01:22:34.547Z,96.50
2017-09-26T01:25:02.069Z,96.60
2017-09-26T01:27:29.580Z,96.70
2017-09-26T01:29:58.260Z,96.60
2017-09-26T01:32:26.616Z,96.80
2017-09-26T01:34:54.128Z,96.90
2017-09-26T01:37:21.857Z,96.80
2017-09-26T01:39:49.624Z,96.80
2017-09-26T01:42:17.156Z,96.80
2017-09-26T01:44:44.812Z,96.80
2017-09-26T01:47:12.333Z,96.80
2017-09-26T01:49:39.847Z,96.60
2017-09-26T01:52:07.361Z,96.90
2017-09-26T01:54:35.647Z,96.70
2017-09-26T01:57:14.068Z,96.70
2017-09-26T01:59:42.542Z,96.90
2017-09-26T02:02:10.232Z,96.90
2017-09-26T02:04:38.012Z,97.10
2017-09-26T02:07:05.530Z,97.00
2017-09-26T02:09:33.212Z,96.80
2017-09-26T02:12:00.715Z,97.00
2017-09-26T02:14:28.456Z,97.10
2017-09-26T02:16:55.973Z,97.00
2017-09-26T02:19:23.676Z,96.70
2017-09-26T02:21:51.213Z,96.70
2017-09-26T02:24:18.737Z,97.20
2017-09-26T02:26:47.012Z,96.70
2017-09-26T02:29:14.524Z,96.70
2017-09-26T02:31:42.059Z,96.90
2017-09-26T02:34:09.549Z,97.10
2017-09-26T02:36:37.093Z,97.00
2017-09-26T02:39:04.862Z,97.10
2017-09-26T02:41:32.376Z,97.00
2017-09-26T02:44:00.030Z,96.70
2017-09-26T02:46:27.538Z,97.00
2017-09-26T02:48:55.045Z,97.20
2017-09-26T02:51:22.751Z,97.20
2017-09-26T02:53:50.522Z,97.30
2017-09-26T02:56:18.039Z,97.20
2017-09-26T02:58:45.740Z,97.50
2017-09-26T03:01:13.257Z,97.30
2017-09-26T03:03:40.768Z,97.40
2017-09-26T03:06:08.396Z,97.40
2017-09-26T03:08:35.912Z,97.50
2017-09-26T03:11:03.415Z,97.50
2017-09-26T03:13:30.940Z,97.30
2017-09-26T03:15:58.680Z,97.70
2017-09-26T03:18:26.180Z,97.60
2017-09-26T03:20:53.766Z,97.30
2017-09-26T03:23:21.292Z,97.70
2017-09-26T03:25:48.983Z,97.60
2017-09-26T03:28:16.501Z,97.50
2017-09-26T03:30:44.134Z,97.80
2017-09-26T03:33:11.680Z,98.00
2017-09-26T03:35:39.198Z,97.80
2017-09-26T03:38:06.860Z,97.90
2017-09-26T03:40:34.649Z,97.80
2017-09-26T03:43:02.188Z,97.80
2017-09-26T03:45:29.698Z,97.90
2017-09-26T03:47:57.212Z,97.70
2017-09-26T03:50:24.715Z,97.90
2017-09-26T03:52:52.227Z,97.90
2017-09-26T03:55:19.739Z,98.00
2017-09-26T03:57:47.408Z,97.90
2017-09-26T04:00:14.924Z,97.80
2017-09-26T04:02:42.449Z,97.70
2017-09-26T04:05:09.956Z,97.90
2017-09-26T04:07:37.587Z,97.90
2017-09-26T04:10:05.100Z,98.10
2017-09-26T04:12:32.745Z,98.10
2017-09-26T04:15:00.259Z,98.20
2017-09-26T04:17:27.797Z,98.10
2017-09-26T04:19:55.428Z,98.20
2017-09-26T04:22:22.947Z,98.00
2017-09-26T04:24:50.473Z,98.10
2017-09-26T04:27:18.134Z,98.20
2017-09-26T04:29:45.927Z,98.10
2017-09-26T04:32:13.687Z,98.10
2017-09-26T04:34:41.206Z,98.10
2017-09-26T04:37:08.912Z,98.10
2017-09-26T04:39:36.424Z,98.20
2017-09-26T04:42:03.928Z,97.90
2017-09-26T04:44:31.455Z,98.00
2017-09-26T04:46:59.019Z,97.90
2017-09-26T04:49:26.808Z,98.00
2017-09-26T04:51:54.572Z,98.20
2017-09-26T04:54:22.084Z,98.30
2017-09-26T04:56:49.761Z,98.20
2017-09-26T04:59:17.556Z,98.10
2017-09-26T05:01:45.067Z,98.20
2017-09-26T05:04:12.775Z,98.20
2017-09-26T05:06:40.541Z,98.40
2017-09-26T05:09:08.052Z,98.30
2017-09-26T05:11:35.572Z,98.20
2017-09-26T05:14:03.216Z,98.30
2017-09-26T05:16:30.981Z,98.30
2017-09-26T05:18:58.488Z,98.50
2017-09-26T05:21:26.076Z,98.60
2017-09-26T05:23:53.656Z,98.30
2017-09-26T05:26:21.192Z,98.50
2017-09-26T05:28:48.709Z,98.40
2017-09-26T05:31:17.256Z,98.30
2017-09-26T05:33:45.020Z,98.30
2017-09-26T05:36:12.540Z,98.40
2017-09-26T05:38:40.216Z,98.30
2017-09-26T05:41:08.005Z,98.50
2017-09-26T05:43:35.509Z,98.30
2017-09-26T05:46:03.227Z,98.40
2017-09-26T05:48:30.745Z,98.20
2017-09-26T05:50:58.291Z,98.30
2017-09-26T05:53:25.914Z,98.30
2017-09-26T05:55:54.278Z,98.20
2017-09-26T05:58:21.797Z,98.40
2017-09-26T06:00:49.475Z,98.20
2017-09-26T06:03:16.989Z,98.00
2017-09-26T06:05:44.615Z,97.90
2017-09-26T06:08:12.137Z,98.00
2017-09-26T06:10:39.939Z,97.80
2017-09-26T06:13:07.704Z,98.30
2017-09-26T06:15:35.336Z,98.20
2017-09-26T06:18:03.612Z,98.00
2017-09-26T06:20:31.312Z,97.40
2017-09-26T06:22:59.061Z,97.70
2017-09-26T06:25:26.586Z,97.60
2017-09-26T06:27:54.118Z,98.00
2017-09-26T06:30:22.416Z,97.40
2017-09-26T06:32:49.924Z,97.40
2017-09-26T06:35:17.556Z,97.80
2017-09-26T06:37:45.073Z,98.10
2017-09-26T06:40:12.608Z,97.30
2017-09-26T06:42:40.224Z,97.00
2017-09-26T06:45:08.152Z,97.60
2017-09-26T06:47:36.692Z,97.20
2017-09-26T06:50:04.577Z,97.10
2017-09-26T06:52:32.201Z,97.30
2017-09-26T06:55:00.715Z,97.20
2017-09-26T06:57:28.234Z,97.00
2017-09-26T06:59:55.814Z,96.80
2017-09-26T07:02:23.324Z,96.80
2017-09-26T07:04:51.040Z,96.70
2017-09-26T07:07:18.611Z,96.90
2017-09-26T07:09:46.132Z,96.70
2017-09-26T07:12:13.729Z,96.60
2017-09-26T07:14:41.253Z,96.70
2017-09-26T07:17:08.913Z,96.80
2017-09-26T07:19:36.433Z,97.00
2017-09-26T07:22:03.945Z,96.40
2017-09-26T07:24:31.488Z,96.50
2017-09-26T07:26:58.996Z,96.60
2017-09-26T07:29:26.498Z,96.60
2017-09-26T07:31:54.024Z,96.50
2017-09-26T07:34:21.759Z,96.70
2017-09-26T07:36:49.514Z,96.60
2017-09-26T07:39:17.272Z,96.50
2017-09-26T07:41:44.788Z,96.60
2017-09-26T07:44:13.033Z,96.50
2017-09-26T07:46:40.574Z,96.40
2017-09-26T07:49:08.332Z,96.60
2017-09-26T07:51:36.273Z,96.30
2017-09-26T07:54:03.861Z,96.40
2017-09-26T07:56:31.381Z,96.20
2017-09-26T07:58:58.896Z,96.30
2017-09-26T08:01:26.409Z,96.20
2017-09-26T08:03:54.233Z,96.10
2017-09-26T08:06:22.327Z,96.10
2017-09-26T08:08:50.046Z,96.00
2017-09-26T08:11:17.564Z,96.00
2017-09-26T08:13:45.073Z,96.00
2017-09-26T08:16:12.771Z,96.40
2017-09-26T08:18:40.343Z,96.10
2017-09-26T08:21:07.848Z,95.80
2017-09-26T08:23:35.665Z,95.80
2017-09-26T08:26:03.536Z,96.00
2017-09-26T08:28:31.044Z,96.00
2017-09-26T08:30:58.728Z,95.90
2017-09-26T08:33:26.540Z,96.00
2017-09-26T08:35:54.061Z,96.00
2017-09-26T08:38:21.736Z,96.00
2017-09-26T08:40:49.248Z,95.80
2017-09-26T08:43:16.887Z,95.60
2017-09-26T08:45:44.432Z,95.60
2017-09-26T08:48:11.947Z,95.40
2017-09-26T08:50:39.638Z,95.40
2017-09-26T08:53:07.888Z,95.30
2017-09-26T08:55:35.421Z,95.20
2017-09-26T08:58:03.876Z,94.90
2017-09-26T09:00:31.431Z,94.90
2017-09-26T09:02:58.927Z,94.90
2017-09-26T09:05:27.212Z,94.90
2017-09-26T09:07:54.928Z,94.90
2017-09-26T09:10:22.440Z,95.10
2017-09-26T09:12:50.147Z,95.20
2017-09-26T09:15:17.686Z,95.50
2017-09-26T09:17:45.333Z,95.60
2017-09-26T09:20:12.848Z,95.70
2017-09-26T09:22:40.623Z,95.50
2017-09-26T09:25:08.322Z,95.70
2017-09-26T09:27:35.840Z,95.80
2017-09-26T09:30:03.587Z,95.70
2017-09-26T09:32:31.096Z,95.80
2017-09-26T09:34:58.609Z,95.70
2017-09-26T09:37:26.241Z,95.30
2017-09-26T09:39:53.800Z,95.20
2017-09-26T09:42:21.315Z,95.50
2017-09-26T09:44:48.922Z,95.50
2017-09-26T09:47:16.635Z,95.40
2017-09-26T09:49:44.144Z,95.30
2017-09-26T09:52:12.184Z,95.00
2017-09-26T09:54:39.705Z,95.10
2017-09-26T09:57:07.213Z,95.10
2017-09-26T09:59:34.740Z,95.10
2017-09-26T10:02:02.344Z,95.10
2017-09-26T10:04:29.853Z,95.10
2017-09-26T10:06:57.382Z,95.00
2017-09-26T10:09:24.937Z,95.10
2017-09-26T10:11:54.012Z,95.00
2017-09-26T10:14:21.572Z,94.80
2017-09-26T10:16:49.092Z,94.90
2017-09-26T10:19:16.680Z,94.90
2017-09-26T10:21:44.196Z,94.80
2017-09-26T10:24:11.702Z,95.00
2017-09-26T10:26:39.427Z,95.00
2017-09-26T10:29:06.946Z,94.70
2017-09-26T10:31:34.616Z,94.60
2017-09-26T10:34:02.529Z,94.60
2017-09-26T10:36:30.029Z,94.70
2017-09-26T10:38:57.543Z,94.60
2017-09-26T10:41:25.060Z,94.70
2017-09-26T10:43:52.777Z,94.70
2017-09-26T10:46:21.245Z,94.40
2017-09-26T10:48:48.940Z,94.50
2017-09-26T10:51:16.471Z,94.00
2017-09-26T10:53:43.978Z,94.30
2017-09-26T10:56:11.496Z,94.50
2017-09-26T10:58:39.024Z,94.40
2017-09-26T11:01:06.533Z,94.20
2017-09-26T11:03:35.572Z,93.80
2017-09-26T11:06:03.080Z,93.70
2017-09-26T11:08:30.606Z,93.20
2017-09-26T11:10:58.188Z,93.30
2017-09-26T11:13:25.703Z,93.10
2017-09-26T11:15:53.371Z,93.10
2017-09-26T11:18:20.903Z,93.30
2017-09-26T11:20:48.417Z,93.40
2017-09-26T11:23:15.931Z,93.00
2017-09-26T11:25:44.212Z,92.80
2017-09-26T11:28:11.943Z,92.70
2017-09-26T11:30:39.566Z,92.20
2017-09-26T11:33:07.138Z,92.50
2017-09-26T11:35:34.640Z,92.20
2017-09-26T11:38:02.363Z,92.40
2017-09-26T11:40:29.873Z,92.40
2017-09-26T11:42:57.402Z,92.10
2017-09-26T11:45:25.032Z,91.90
2017-09-26T11:47:52.980Z,92.10
2017-09-26T11:50:20.565Z,92.60
2017-09-26T11:52:48.084Z,92.70
2017-09-26T11:55:15.644Z,92.60
2017-09-26T11:57:43.195Z,92.50
2017-09-26T12:00:10.713Z,92.70
2017-09-26T12:02:38.222Z,92.10
2017-09-26T12:05:05.741Z,92.10
2017-09-26T12:07:33.248Z,92.30
2017-09-26T12:10:00.760Z,92.00
2017-09-26T12:12:28.274Z,91.80
2017-09-26T12:14:55.788Z,91.80
2017-09-26T12:17:23.302Z,91.70
2017-09-26T12:19:51.628Z,91.90
2017-09-26T12:22:19.346Z,91.90
2017-09-26T12:24:47.104Z,91.90
2017-09-26T12:27:14.868Z,92.00
2017-09-26T12:29:42.387Z,91.80
2017-09-26T12:32:10.066Z,91.30
2017-09-26T12:34:37.580Z,91.70
2017-09-26T12:37:05.100Z,91.70
2017-09-26T12:39:32.607Z,91.60
2017-09-26T12:42:00.900Z,92.20
2017-09-26T12:44:28.604Z,92.20
2017-09-26T12:46:56.157Z,92.00
2017-09-26T12:49:23.659Z,92.40
2017-09-26T12:51:51.936Z,92.00
2017-09-26T12:54:19.465Z,92.00
2017-09-26T12:56:48.027Z,91.90
2017-09-26T12:59:15.577Z,91.90
2017-09-26T13:01:43.432Z,91.30
2017-09-26T13:04:11.011Z,90.70
2017-09-26T13:06:38.779Z,90.40
2017-09-26T13:09:06.302Z,90.60
2017-09-26T13:11:34.555Z,90.80
2017-09-26T13:14:02.080Z,90.80
2017-09-26T13:16:29.831Z,90.70
2017-09-26T13:18:57.355Z,91.10
2017-09-26T13:21:24.864Z,90.60
2017-09-26T13:23:52.508Z,90.10
2017-09-26T13:26:20.272Z,90.50
2017-09-26T13:28:47.786Z,90.80
2017-09-26T13:31:15.493Z,91.30
2017-09-26T13:33:43.268Z,91.20
2017-09-26T13:36:10.786Z,91.20
2017-09-26T13:38:38.447Z,91.10
2017-09-26T13:41:06.103Z,90.40
2017-09-26T13:43:33.694Z,90.30
2017-09-26T13:46:01.196Z,90.20
2017-09-26T13:48:28.759Z,90.40
2017-09-26T13:50:57.064Z,89.90
2017-09-26T13:53:24.712Z,89.90
2017-09-26T13:55:52.233Z,89.30
2017-09-26T13:58:19.745Z,90.10
2017-09-26T14:00:47.272Z,89.50
2017-09-26T14:03:15.547Z,90.10
2017-09-26T14:05:43.268Z,90.10
2017-09-26T14:08:10.895Z,90.70
2017-09-26T14:10:38.460Z,90.80
2017-09-26T14:13:05.967Z,91.10
2017-09-26T14:15:34.316Z,90.90
2017-09-26T14:18:01.834Z,91.00
2017-09-26T14:20:29.903Z,91.00
2017-09-26T14:22:57.587Z,91.00
2017-09-26T14:25:25.423Z,90.70
2017-09-26T14:27:53.137Z,90.50
2017-09-26T14:30:20.648Z,90.50
2017-09-26T14:32:48.328Z,90.40
2017-09-26T14:35:15.841Z,90.40
2017-09-26T14:37:43.584Z,90.70
2017-09-26T14:40:11.092Z,90.30
2017-09-26T14:42:38.740Z,90.00
2017-09-26T14:45:06.257Z,90.00
2017-09-26T14:47:34.020Z,90.00
2017-09-26T14:50:01.555Z,88.90
2017-09-26T14:52:29.840Z,89.50
2017-09-26T14:54:57.356Z,90.00
2017-09-26T14:57:25.068Z,90.30
2017-09-26T14:59:52.575Z,90.20
2017-09-26T15:02:20.293Z,90.20
2017-09-26T15:04:47.809Z,90.40
2017-09-26T15:07:15.507Z,90.60
2017-09-26T15:09:43.018Z,90.70
2017-09-26T15:12:10.579Z,90.60
2017-09-26T15:14:38.204Z,90.60
2017-09-26T15:17:05.948Z,90.20
2017-09-26T15:19:33.471Z,90.20
2017-09-26T15:22:01.185Z,90.20
2017-09-26T15:24:28.811Z,90.50
2017-09-26T15:26:56.322Z,90.70
2017-09-26T15:29:23.847Z,90.90
2017-09-26T15:31:51.614Z,90.80
2017-09-26T15:34:19.379Z,91.00
2017-09-26T15:36:47.140Z,91.00
2017-09-26T15:39:14.667Z,91.40
2017-09-26T15:41:42.361Z,91.70
2017-09-26T15:44:09.881Z,92.00
2017-09-26T15:46:37.540Z,92.00
2017-09-26T15:49:05.072Z,92.00
2017-09-26T15:51:33.351Z,92.60
2017-09-26T15:54:00.864Z,92.20
2017-09-26T15:56:28.403Z,92.40
2017-09-26T15:58:56.020Z,92.70
2017-09-26T16:01:23.777Z,92.70
2017-09-26T16:03:51.313Z,92.80
2017-09-26T16:06:18.947Z,92.80
2017-09-26T16:08:46.460Z,93.00
2017-09-26T16:11:13.984Z,93.00
2017-09-26T16:13:41.494Z,93.30
2017-09-26T16:16:09.044Z,93.50
2017-09-26T16:18:37.329Z,93.60
2017-09-26T16:21:04.857Z,93.60
2017-09-26T16:23:32.375Z,93.80
2017-09-26T16:25:59.904Z,94.00
2017-09-26T16:28:27.408Z,94.10
2017-09-26T16:30:55.050Z,94.00
2017-09-26T16:33:23.244Z,94.30
2017-09-26T16:35:50.767Z,94.10
2017-09-26T16:38:18.489Z,94.20
2017-09-26T16:40:46.228Z,94.20
2017-09-26T16:43:13.734Z,94.30
2017-09-26T16:45:41.460Z,94.20
2017-09-26T16:48:09.212Z,94.00
2017-09-26T16:50:36.716Z,93.90
2017-09-26T16:53:04.249Z,94.00
2017-09-26T16:55:31.764Z,93.80
2017-09-26T16:57:59.349Z,94.30
2017-09-26T17:00:27.108Z,94.60
2017-09-26T17:02:54.839Z,94.70
2017-09-26T17:05:22.561Z,95.00
2017-09-26T17:07:50.088Z,94.90
2017-09-26T17:10:17.605Z,95.00
2017-09-26T17:12:45.616Z,95.00
2017-09-26T17:15:13.149Z,94.90
2017-09-26T17:17:40.648Z,95.00
2017-09-26T17:20:08.269Z,95.30
2017-09-26T17:22:35.972Z,95.40
2017-09-26T17:25:03.520Z,95.30
2017-09-26T17:27:31.046Z,95.40
2017-09-26T17:29:58.661Z,95.50
2017-09-26T17:32:26.168Z,95.50
2017-09-26T17:34:53.699Z,95.30
2017-09-26T17:37:21.233Z,95.60
2017-09-26T17:39:48.745Z,95.60
2017-09-26T17:42:16.354Z,96.00
2017-09-26T17:44:43.864Z,96.00
2017-09-26T17:47:11.644Z,95.60
2017-09-26T17:49:39.148Z,96.30
2017-09-26T17:52:07.683Z,95.60
2017-09-26T17:54:35.220Z,95.60
2017-09-26T17:57:02.911Z,95.50
2017-09-26T17:59:30.441Z,95.40
2017-09-26T18:01:57.945Z,95.40
2017-09-26T18:04:25.455Z,95.60
2017-09-26T18:06:53.052Z,95.70
2017-09-26T18:09:20.573Z,95.90
2017-09-26T18:11:48.133Z,95.90
2017-09-26T18:14:15.724Z,95.80
2017-09-26T18:16:43.237Z,95.90
2017-09-26T18:19:10.934Z,95.80
2017-09-26T18:21:38.445Z,95.70
2017-09-26T18:24:05.970Z,95.70
2017-09-26T18:26:33.624Z,95.80
2017-09-26T18:29:01.372Z,95.80
2017-09-26T18:31:29.138Z,95.80
2017-09-26T18:33:57.084Z,95.90
2017-09-26T18:36:24.590Z,95.80
2017-09-26T18:38:52.621Z,95.90
2017-09-26T18:41:20.191Z,95.80
2017-09-26T18:43:48.105Z,95.80
2017-09-26T18:46:16.296Z,95.80
2017-09-26T18:48:43.816Z,95.70
2017-09-26T18:51:11.338Z,95.70
2017-09-26T18:53:38.843Z,95.70
2017-09-26T18:56:07.397Z,95.70
2017-09-26T18:58:34.923Z,95.70
2017-09-26T19:01:02.631Z,95.70
2017-09-26T19:03:30.728Z,95.60
2017-09-26T19:05:58.457Z,95.70
2017-09-26T19:08:26.287Z,95.80
2017-09-26T19:10:53.990Z,96.00
2017-09-26T19:13:21.752Z,96.20
2017-09-26T19:15:50.781Z,96.00
2017-09-26T19:18:18.311Z,96.00
2017-09-26T19:20:46.624Z,96.40
2017-09-26T19:23:14.336Z,96.30
2017-09-26T19:25:41.859Z,96.30
2017-09-26T19:28:09.480Z,96.20
2017-09-26T19:30:36.993Z,96.30
2017-09-26T19:33:04.560Z,96.20
2017-09-26T19:35:32.074Z,96.50
2017-09-26T19:37:59.648Z,96.10
2017-09-26T19:40:27.172Z,96.20
2017-09-26T19:42:54.916Z,96.30
2017-09-26T19:45:23.928Z,96.40
2017-09-26T19:47:51.448Z,96.30
2017-09-26T19:50:19.126Z,96.30
2017-09-26T19:52:46.995Z,96.30
2017-09-26T19:55:14.656Z,96.30
2017-09-26T19:57:42.410Z,96.40
2017-09-26T20:00:09.937Z,96.50
2017-09-26T20:02:37.420Z,96.50
2017-09-26T20:05:05.076Z,96.60
2017-09-26T20:07:32.591Z,96.50
2017-09-26T20:10:00.902Z,96.30
2017-09-26T20:12:28.556Z,96.40
2017-09-26T20:14:56.057Z,96.40
2017-09-26T20:17:24.743Z,96.40
2017-09-26T20:19:52.285Z,96.40
2017-09-26T20:22:20.044Z,96.40
2017-09-26T20:24:47.574Z,96.40
2017-09-26T20:27:15.240Z,96.40
2017-09-26T20:29:43.335Z,96.40
2017-09-26T20:32:10.840Z,96.40
2017-09-26T20:34:38.548Z,96.50
2017-09-26T20:37:06.060Z,96.40
2017-09-26T20:39:33.570Z,96.60
2017-09-26T20:42:01.236Z,96.70
2017-09-26T20:44:28.751Z,96.60
2017-09-26T20:46:56.485Z,96.70
2017-09-26T20:49:24.791Z,96.90
2017-09-26T20:51:52.475Z,96.90
2017-09-26T20:54:20.025Z,96.80
2017-09-26T20:56:47.629Z,96.80
2017-09-26T20:59:15.161Z,96.90
2017-09-26T21:01:42.680Z,96.70
2017-09-26T21:04:10.188Z,96.70
2017-09-26T21:06:39.291Z,96.80
2017-09-26T21:09:06.951Z,96.90
2017-09-26T21:11:34.924Z,96.90
2017-09-26T21:14:02.464Z,97.10
2017-09-26T21:16:29.989Z,97.20
2017-09-26T21:18:57.517Z,97.10
2017-09-26T21:21:25.805Z,97.10
2017-09-26T21:23:53.325Z,97.10
2017-09-26T21:26:20.981Z,97.00
2017-09-26T21:28:48.492Z,97.40
2017-09-26T21:31:16.207Z,97.10
2017-09-26T21:33:43.952Z,97.00
2017-09-26T21:36:11.465Z,97.00
2017-09-26T21:38:39.177Z,97.30
2017-09-26T21:41:06.732Z,97.10
2017-09-26T21:43:35.015Z,97.20
2017-09-26T21:46:02.788Z,97.30
2017-09-26T21:48:30.309Z,97.70
2017-09-26T21:50:57.997Z,97.40
2017-09-26T21:53:25.510Z,97.40
2017-09-26T21:55:53.231Z,97.50
2017-09-26T21:58:20.744Z,97.70
2017-09-26T22:00:48.260Z,97.40
2017-09-26T22:03:16.543Z,97.80
2017-09-26T22:05:44.237Z,97.40
2017-09-26T22:08:11.801Z,97.50
2017-09-26T22:10:39.491Z,97.50
2017-09-26T22:13:07.008Z,97.30
2017-09-26T22:15:34.529Z,97.50
2017-09-26T22:18:02.176Z,97.40
2017-09-26T22:20:29.667Z,97.60
2017-09-26T22:22:57.200Z,97.40
2017-09-26T22:25:24.859Z,97.30
2017-09-26T22:27:52.608Z,97.40
2017-09-26T22:30:20.120Z,97.40
2017-09-26T22:32:47.846Z,97.50
2017-09-26T22:35:15.591Z,97.50
2017-09-26T22:37:43.096Z,97.60
2017-09-26T22:40:10.629Z,97.60
2017-09-26T22:42:38.128Z,97.70
2017-09-26T22:45:05.736Z,97.70
2017-09-26T22:47:33.500Z,97.60
2017-09-26T22:50:01.009Z,97.80
2017-09-26T22:52:28.516Z,97.80
2017-09-26T22:54:56.176Z,97.60
2017-09-26T22:57:23.684Z,97.70
2017-09-26T22:59:51.209Z,97.70
2017-09-26T23:02:18.856Z,97.70
2017-09-26T23:04:46.371Z,97.60
2017-09-26T23:07:14.674Z,97.80
2017-09-26T23:09:42.188Z,97.60
2017-09-26T23:12:09.902Z,97.20
2017-09-26T23:14:37.412Z,97.50
2017-09-26T23:17:04.924Z,97.50
2017-09-26T23:19:32.532Z,97.50
2017-09-26T23:22:00.256Z,97.50
2017-09-26T23:24:27.796Z,97.40
2017-09-26T23:26:55.733Z,97.30
2017-09-26T23:29:23.280Z,97.20
2017-09-26T23:31:51.089Z,97.20
2017-09-26T23:34:18.592Z,97.10
2017-09-26T23:36:46.313Z,96.80
2017-09-26T23:39:14.059Z,96.70
2017-09-26T23:41:41.832Z,96.60
2017-09-26T23:44:09.388Z,96.60
2017-09-26T23:46:36.896Z,96.90
2017-09-26T23:49:04.516Z,96.40
2017-09-26T23:51:32.051Z,96.40
2017-09-26T23:53:59.719Z,96.10
2017-09-26T23:56:27.484Z,96.40
2017-09-26T23:58:55.262Z,96.20
